sensor_id;sensor_type;location;lat;lon;timestamp;P1;durP1;ratioP1;P2;durP2;ratioP2
83659;SDS011;73632;50.808;3.422;2023-11-19T00:01:26;23.83;;;3.50;;
83659;SDS011;73632;50.808;3.422;2023-11-19T00:03:51;29.20;;;3.88;;
83659;SDS011;73632;50.808;3.422;2023-11-19T00:06:17;32.47;;;4.25;;
83659;SDS011;73632;50.808;3.422;2023-11-19T00:08:42;37.65;;;4.78;;
83659;SDS011;73632;50.808;3.422;2023-11-19T00:11:08;26.42;;;4.20;;
83659;SDS011;73632;50.808;3.422;2023-11-19T00:13:34;36.80;;;5.03;;
83659;SDS011;73632;50.808;3.422;2023-11-19T00:15:59;33.65;;;5.07;;
83659;SDS011;73632;50.808;3.422;2023-11-19T00:18:25;29.98;;;3.80;;
83659;SDS011;73632;50.808;3.422;2023-11-19T00:20:50;30.83;;;4.80;;
83659;SDS011;73632;50.808;3.422;2023-11-19T00:23:16;36.40;;;4.30;;
83659;SDS011;73632;50.808;3.422;2023-11-19T00:25:41;34.80;;;5.43;;
83659;SDS011;73632;50.808;3.422;2023-11-19T00:28:07;28.48;;;3.95;;
83659;SDS011;73632;50.808;3.422;2023-11-19T00:30:33;29.35;;;4.10;;
83659;SDS011;73632;50.808;3.422;2023-11-19T00:32:58;22.65;;;3.33;;
83659;SDS011;73632;50.808;3.422;2023-11-19T00:35:23;28.73;;;4.10;;
83659;SDS011;73632;50.808;3.422;2023-11-19T00:37:49;32.58;;;4.35;;
83659;SDS011;73632;50.808;3.422;2023-11-19T00:40:15;36.08;;;4.35;;
83659;SDS011;73632;50.808;3.422;2023-11-19T00:42:43;31.40;;;4.70;;
83659;SDS011;73632;50.808;3.422;2023-11-19T00:45:08;24.27;;;3.70;;
83659;SDS011;73632;50.808;3.422;2023-11-19T00:47:35;25.55;;;3.55;;
83659;SDS011;73632;50.808;3.422;2023-11-19T00:50:01;25.02;;;4.10;;
83659;SDS011;73632;50.808;3.422;2023-11-19T00:52:27;30.70;;;4.50;;
83659;SDS011;73632;50.808;3.422;2023-11-19T00:54:52;34.97;;;4.50;;
83659;SDS011;73632;50.808;3.422;2023-11-19T00:57:18;31.05;;;4.15;;
83659;SDS011;73632;50.808;3.422;2023-11-19T00:59:44;30.10;;;3.97;;
83659;SDS011;73632;50.808;3.422;2023-11-19T01:02:09;36.40;;;4.97;;
83659;SDS011;73632;50.808;3.422;2023-11-19T01:04:35;39.58;;;5.05;;
83659;SDS011;73632;50.808;3.422;2023-11-19T01:07:02;35.83;;;4.80;;
83659;SDS011;73632;50.808;3.422;2023-11-19T01:09:31;33.28;;;4.18;;
83659;SDS011;73632;50.808;3.422;2023-11-19T01:11:57;29.52;;;5.10;;
83659;SDS011;73632;50.808;3.422;2023-11-19T01:14:25;39.65;;;4.35;;
83659;SDS011;73632;50.808;3.422;2023-11-19T01:16:50;32.70;;;4.55;;
83659;SDS011;73632;50.808;3.422;2023-11-19T01:19:16;30.40;;;4.55;;
83659;SDS011;73632;50.808;3.422;2023-11-19T01:21:41;35.63;;;4.88;;
83659;SDS011;73632;50.808;3.422;2023-11-19T01:24:07;39.97;;;5.30;;
83659;SDS011;73632;50.808;3.422;2023-11-19T01:26:34;41.85;;;5.78;;
83659;SDS011;73632;50.808;3.422;2023-11-19T01:29:00;39.20;;;5.45;;
83659;SDS011;73632;50.808;3.422;2023-11-19T01:31:26;44.45;;;5.22;;
83659;SDS011;73632;50.808;3.422;2023-11-19T01:33:51;34.05;;;4.97;;
83659;SDS011;73632;50.808;3.422;2023-11-19T01:36:17;35.50;;;5.15;;
83659;SDS011;73632;50.808;3.422;2023-11-19T01:38:42;45.28;;;5.90;;
83659;SDS011;73632;50.808;3.422;2023-11-19T01:41:08;38.53;;;5.07;;
83659;SDS011;73632;50.808;3.422;2023-11-19T01:46:04;37.10;;;5.45;;
83659;SDS011;73632;50.808;3.422;2023-11-19T01:48:34;47.80;;;6.65;;
83659;SDS011;73632;50.808;3.422;2023-11-19T01:51:01;29.10;;;4.38;;
83659;SDS011;73632;50.808;3.422;2023-11-19T01:53:27;37.95;;;5.43;;
83659;SDS011;73632;50.808;3.422;2023-11-19T01:55:54;40.40;;;5.13;;
83659;SDS011;73632;50.808;3.422;2023-11-19T01:58:20;46.88;;;5.65;;
83659;SDS011;73632;50.808;3.422;2023-11-19T02:00:46;44.45;;;6.20;;
83659;SDS011;73632;50.808;3.422;2023-11-19T02:03:12;29.08;;;4.30;;
83659;SDS011;73632;50.808;3.422;2023-11-19T02:05:39;33.95;;;4.25;;
83659;SDS011;73632;50.808;3.422;2023-11-19T02:08:05;30.52;;;5.15;;
83659;SDS011;73632;50.808;3.422;2023-11-19T02:10:30;32.22;;;4.72;;
83659;SDS011;73632;50.808;3.422;2023-11-19T02:12:57;39.90;;;5.82;;
83659;SDS011;73632;50.808;3.422;2023-11-19T02:15:23;40.97;;;6.03;;
83659;SDS011;73632;50.808;3.422;2023-11-19T02:17:49;41.30;;;5.63;;
83659;SDS011;73632;50.808;3.422;2023-11-19T02:20:15;37.47;;;4.82;;
83659;SDS011;73632;50.808;3.422;2023-11-19T02:22:41;39.08;;;5.70;;
83659;SDS011;73632;50.808;3.422;2023-11-19T02:25:29;51.80;;;6.40;;
83659;SDS011;73632;50.808;3.422;2023-11-19T02:27:58;47.75;;;7.43;;
83659;SDS011;73632;50.808;3.422;2023-11-19T02:30:25;39.17;;;5.53;;
83659;SDS011;73632;50.808;3.422;2023-11-19T02:32:54;38.80;;;6.03;;
83659;SDS011;73632;50.808;3.422;2023-11-19T02:35:30;37.63;;;5.47;;
83659;SDS011;73632;50.808;3.422;2023-11-19T02:37:56;36.42;;;5.10;;
83659;SDS011;73632;50.808;3.422;2023-11-19T02:40:23;46.45;;;5.15;;
83659;SDS011;73632;50.808;3.422;2023-11-19T02:42:54;42.47;;;5.60;;
83659;SDS011;73632;50.808;3.422;2023-11-19T02:45:21;42.17;;;5.22;;
83659;SDS011;73632;50.808;3.422;2023-11-19T02:47:47;40.05;;;6.97;;
83659;SDS011;73632;50.808;3.422;2023-11-19T02:50:13;45.47;;;6.07;;
83659;SDS011;73632;50.808;3.422;2023-11-19T02:52:39;33.88;;;4.22;;
83659;SDS011;73632;50.808;3.422;2023-11-19T02:55:09;34.60;;;5.28;;
83659;SDS011;73632;50.808;3.422;2023-11-19T02:57:37;39.05;;;5.15;;
83659;SDS011;73632;50.808;3.422;2023-11-19T03:02:43;43.75;;;6.10;;
83659;SDS011;73632;50.808;3.422;2023-11-19T03:05:11;46.00;;;5.90;;
83659;SDS011;73632;50.808;3.422;2023-11-19T03:07:39;50.13;;;5.93;;
83659;SDS011;73632;50.808;3.422;2023-11-19T03:10:11;49.70;;;6.78;;
83659;SDS011;73632;50.808;3.422;2023-11-19T03:12:43;41.92;;;5.25;;
83659;SDS011;73632;50.808;3.422;2023-11-19T03:15:10;51.97;;;6.00;;
83659;SDS011;73632;50.808;3.422;2023-11-19T03:17:39;53.65;;;6.85;;
83659;SDS011;73632;50.808;3.422;2023-11-19T03:20:06;41.40;;;6.20;;
83659;SDS011;73632;50.808;3.422;2023-11-19T03:22:34;48.10;;;5.85;;
83659;SDS011;73632;50.808;3.422;2023-11-19T03:25:01;44.33;;;5.32;;
83659;SDS011;73632;50.808;3.422;2023-11-19T03:27:27;51.42;;;6.47;;
83659;SDS011;73632;50.808;3.422;2023-11-19T03:29:52;47.75;;;5.43;;
83659;SDS011;73632;50.808;3.422;2023-11-19T03:32:18;36.17;;;6.25;;
83659;SDS011;73632;50.808;3.422;2023-11-19T03:34:43;41.60;;;5.93;;
83659;SDS011;73632;50.808;3.422;2023-11-19T03:37:08;33.88;;;5.03;;
83659;SDS011;73632;50.808;3.422;2023-11-19T03:39:34;42.63;;;6.50;;
83659;SDS011;73632;50.808;3.422;2023-11-19T03:41:59;35.47;;;5.40;;
83659;SDS011;73632;50.808;3.422;2023-11-19T03:44:25;41.58;;;5.85;;
83659;SDS011;73632;50.808;3.422;2023-11-19T03:46:52;49.17;;;5.22;;
83659;SDS011;73632;50.808;3.422;2023-11-19T03:49:17;53.25;;;6.82;;
83659;SDS011;73632;50.808;3.422;2023-11-19T03:51:43;50.88;;;6.28;;
83659;SDS011;73632;50.808;3.422;2023-11-19T03:54:08;35.72;;;5.80;;
83659;SDS011;73632;50.808;3.422;2023-11-19T03:56:34;46.20;;;5.82;;
83659;SDS011;73632;50.808;3.422;2023-11-19T03:58:59;38.47;;;6.10;;
83659;SDS011;73632;50.808;3.422;2023-11-19T04:01:24;42.65;;;6.93;;
83659;SDS011;73632;50.808;3.422;2023-11-19T04:03:50;43.42;;;5.85;;
83659;SDS011;73632;50.808;3.422;2023-11-19T04:06:15;44.78;;;6.07;;
83659;SDS011;73632;50.808;3.422;2023-11-19T04:08:41;47.42;;;6.40;;
83659;SDS011;73632;50.808;3.422;2023-11-19T04:11:06;37.45;;;5.93;;
83659;SDS011;73632;50.808;3.422;2023-11-19T04:13:33;41.78;;;6.22;;
83659;SDS011;73632;50.808;3.422;2023-11-19T04:15:59;46.92;;;7.32;;
83659;SDS011;73632;50.808;3.422;2023-11-19T04:18:25;42.05;;;6.85;;
83659;SDS011;73632;50.808;3.422;2023-11-19T04:20:50;46.13;;;6.28;;
83659;SDS011;73632;50.808;3.422;2023-11-19T04:23:16;47.50;;;6.35;;
83659;SDS011;73632;50.808;3.422;2023-11-19T04:25:41;64.80;;;6.47;;
83659;SDS011;73632;50.808;3.422;2023-11-19T04:28:07;60.55;;;5.78;;
83659;SDS011;73632;50.808;3.422;2023-11-19T04:30:33;39.85;;;6.63;;
83659;SDS011;73632;50.808;3.422;2023-11-19T04:32:59;52.63;;;6.60;;
83659;SDS011;73632;50.808;3.422;2023-11-19T04:35:24;46.42;;;5.90;;
83659;SDS011;73632;50.808;3.422;2023-11-19T04:37:51;37.70;;;5.53;;
83659;SDS011;73632;50.808;3.422;2023-11-19T04:40:16;56.28;;;6.47;;
83659;SDS011;73632;50.808;3.422;2023-11-19T04:42:43;59.38;;;7.13;;
83659;SDS011;73632;50.808;3.422;2023-11-19T04:45:09;43.58;;;5.32;;
83659;SDS011;73632;50.808;3.422;2023-11-19T04:47:35;60.58;;;6.80;;
83659;SDS011;73632;50.808;3.422;2023-11-19T04:50:01;53.72;;;7.18;;
83659;SDS011;73632;50.808;3.422;2023-11-19T04:52:27;54.42;;;7.68;;
83659;SDS011;73632;50.808;3.422;2023-11-19T04:54:52;56.20;;;6.43;;
83659;SDS011;73632;50.808;3.422;2023-11-19T04:57:18;61.88;;;7.43;;
83659;SDS011;73632;50.808;3.422;2023-11-19T04:59:43;47.83;;;5.93;;
83659;SDS011;73632;50.808;3.422;2023-11-19T05:02:09;47.33;;;6.55;;
83659;SDS011;73632;50.808;3.422;2023-11-19T05:04:34;53.53;;;6.95;;
83659;SDS011;73632;50.808;3.422;2023-11-19T05:07:00;43.03;;;6.05;;
83659;SDS011;73632;50.808;3.422;2023-11-19T05:09:26;57.35;;;7.05;;
83659;SDS011;73632;50.808;3.422;2023-11-19T05:11:51;57.40;;;7.15;;
83659;SDS011;73632;50.808;3.422;2023-11-19T05:14:17;45.95;;;6.30;;
83659;SDS011;73632;50.808;3.422;2023-11-19T05:16:43;53.78;;;7.07;;
83659;SDS011;73632;50.808;3.422;2023-11-19T05:19:09;59.55;;;7.60;;
83659;SDS011;73632;50.808;3.422;2023-11-19T05:21:34;61.22;;;6.38;;
83659;SDS011;73632;50.808;3.422;2023-11-19T05:24:01;64.53;;;6.93;;
83659;SDS011;73632;50.808;3.422;2023-11-19T05:26:29;40.22;;;5.38;;
83659;SDS011;73632;50.808;3.422;2023-11-19T05:28:55;56.25;;;6.65;;
83659;SDS011;73632;50.808;3.422;2023-11-19T05:31:20;47.53;;;6.32;;
83659;SDS011;73632;50.808;3.422;2023-11-19T05:33:46;49.80;;;5.78;;
83659;SDS011;73632;50.808;3.422;2023-11-19T05:36:11;40.13;;;6.28;;
83659;SDS011;73632;50.808;3.422;2023-11-19T05:38:38;62.70;;;7.88;;
83659;SDS011;73632;50.808;3.422;2023-11-19T05:41:04;57.10;;;6.68;;
83659;SDS011;73632;50.808;3.422;2023-11-19T05:43:30;52.33;;;5.63;;
83659;SDS011;73632;50.808;3.422;2023-11-19T05:45:56;44.53;;;5.97;;
83659;SDS011;73632;50.808;3.422;2023-11-19T05:48:21;39.13;;;5.68;;
83659;SDS011;73632;50.808;3.422;2023-11-19T05:50:47;50.03;;;6.40;;
83659;SDS011;73632;50.808;3.422;2023-11-19T05:53:14;62.78;;;7.47;;
83659;SDS011;73632;50.808;3.422;2023-11-19T05:55:40;53.95;;;6.88;;
83659;SDS011;73632;50.808;3.422;2023-11-19T05:58:13;57.67;;;6.93;;
83659;SDS011;73632;50.808;3.422;2023-11-19T06:00:39;43.67;;;5.70;;
83659;SDS011;73632;50.808;3.422;2023-11-19T06:03:05;45.78;;;6.93;;
83659;SDS011;73632;50.808;3.422;2023-11-19T06:05:32;64.70;;;8.35;;
83659;SDS011;73632;50.808;3.422;2023-11-19T06:07:57;59.08;;;6.75;;
83659;SDS011;73632;50.808;3.422;2023-11-19T06:10:23;55.70;;;7.35;;
83659;SDS011;73632;50.808;3.422;2023-11-19T06:12:54;58.40;;;8.35;;
83659;SDS011;73632;50.808;3.422;2023-11-19T06:15:22;43.72;;;6.55;;
83659;SDS011;73632;50.808;3.422;2023-11-19T06:17:47;66.47;;;8.00;;
83659;SDS011;73632;50.808;3.422;2023-11-19T06:20:13;65.03;;;8.48;;
83659;SDS011;73632;50.808;3.422;2023-11-19T06:22:39;49.13;;;7.40;;
83659;SDS011;73632;50.808;3.422;2023-11-19T06:25:07;49.97;;;7.60;;
83659;SDS011;73632;50.808;3.422;2023-11-19T06:27:33;44.33;;;7.45;;
83659;SDS011;73632;50.808;3.422;2023-11-19T06:29:58;52.17;;;7.18;;
83659;SDS011;73632;50.808;3.422;2023-11-19T06:32:24;51.55;;;7.82;;
83659;SDS011;73632;50.808;3.422;2023-11-19T06:34:49;49.38;;;7.32;;
83659;SDS011;73632;50.808;3.422;2023-11-19T06:37:14;42.53;;;7.05;;
83659;SDS011;73632;50.808;3.422;2023-11-19T06:39:40;77.53;;;10.65;;
83659;SDS011;73632;50.808;3.422;2023-11-19T06:42:05;50.45;;;7.63;;
83659;SDS011;73632;50.808;3.422;2023-11-19T06:44:32;77.97;;;9.85;;
83659;SDS011;73632;50.808;3.422;2023-11-19T06:46:57;59.35;;;8.43;;
83659;SDS011;73632;50.808;3.422;2023-11-19T06:49:23;66.45;;;9.65;;
83659;SDS011;73632;50.808;3.422;2023-11-19T06:51:49;70.15;;;10.07;;
83659;SDS011;73632;50.808;3.422;2023-11-19T06:54:15;60.42;;;8.50;;
83659;SDS011;73632;50.808;3.422;2023-11-19T06:56:41;65.45;;;9.25;;
83659;SDS011;73632;50.808;3.422;2023-11-19T06:59:06;55.67;;;8.10;;
83659;SDS011;73632;50.808;3.422;2023-11-19T07:01:36;59.03;;;8.85;;
83659;SDS011;73632;50.808;3.422;2023-11-19T07:04:02;51.78;;;8.35;;
83659;SDS011;73632;50.808;3.422;2023-11-19T07:06:34;58.72;;;8.32;;
83659;SDS011;73632;50.808;3.422;2023-11-19T07:09:01;62.35;;;9.27;;
83659;SDS011;73632;50.808;3.422;2023-11-19T07:11:34;57.20;;;8.40;;
83659;SDS011;73632;50.808;3.422;2023-11-19T07:14:09;75.60;;;8.20;;
83659;SDS011;73632;50.808;3.422;2023-11-19T07:16:35;51.35;;;8.32;;
83659;SDS011;73632;50.808;3.422;2023-11-19T07:19:02;49.60;;;7.50;;
83659;SDS011;73632;50.808;3.422;2023-11-19T07:21:28;55.35;;;6.80;;
83659;SDS011;73632;50.808;3.422;2023-11-19T07:23:57;50.70;;;7.03;;
83659;SDS011;73632;50.808;3.422;2023-11-19T07:26:22;57.50;;;7.82;;
83659;SDS011;73632;50.808;3.422;2023-11-19T07:28:48;57.97;;;7.85;;
83659;SDS011;73632;50.808;3.422;2023-11-19T07:31:16;42.03;;;7.00;;
83659;SDS011;73632;50.808;3.422;2023-11-19T07:33:44;53.83;;;7.18;;
83659;SDS011;73632;50.808;3.422;2023-11-19T07:36:10;47.63;;;5.32;;
83659;SDS011;73632;50.808;3.422;2023-11-19T07:38:37;48.33;;;6.40;;
83659;SDS011;73632;50.808;3.422;2023-11-19T07:41:03;48.35;;;5.78;;
83659;SDS011;73632;50.808;3.422;2023-11-19T07:43:30;52.80;;;7.72;;
83659;SDS011;73632;50.808;3.422;2023-11-19T07:45:55;49.42;;;6.72;;
83659;SDS011;73632;50.808;3.422;2023-11-19T07:48:21;48.95;;;7.43;;
83659;SDS011;73632;50.808;3.422;2023-11-19T07:50:54;44.58;;;6.80;;
83659;SDS011;73632;50.808;3.422;2023-11-19T07:53:20;59.22;;;10.63;;
83659;SDS011;73632;50.808;3.422;2023-11-19T07:55:45;67.97;;;8.50;;
83659;SDS011;73632;50.808;3.422;2023-11-19T07:58:11;56.55;;;7.53;;
83659;SDS011;73632;50.808;3.422;2023-11-19T08:00:37;44.20;;;8.27;;
83659;SDS011;73632;50.808;3.422;2023-11-19T08:03:03;60.58;;;8.00;;
83659;SDS011;73632;50.808;3.422;2023-11-19T08:05:29;47.47;;;7.00;;
83659;SDS011;73632;50.808;3.422;2023-11-19T08:07:55;53.10;;;6.88;;
83659;SDS011;73632;50.808;3.422;2023-11-19T08:10:21;51.92;;;8.02;;
83659;SDS011;73632;50.808;3.422;2023-11-19T08:12:47;44.97;;;6.07;;
83659;SDS011;73632;50.808;3.422;2023-11-19T08:15:12;31.52;;;5.90;;
83659;SDS011;73632;50.808;3.422;2023-11-19T08:17:38;49.72;;;6.30;;
83659;SDS011;73632;50.808;3.422;2023-11-19T08:20:04;63.20;;;9.15;;
83659;SDS011;73632;50.808;3.422;2023-11-19T08:22:30;62.83;;;9.02;;
83659;SDS011;73632;50.808;3.422;2023-11-19T08:24:56;48.28;;;7.43;;
83659;SDS011;73632;50.808;3.422;2023-11-19T08:27:21;43.63;;;5.93;;
83659;SDS011;73632;50.808;3.422;2023-11-19T08:29:53;49.10;;;6.75;;
83659;SDS011;73632;50.808;3.422;2023-11-19T08:32:20;39.15;;;6.38;;
83659;SDS011;73632;50.808;3.422;2023-11-19T08:34:46;40.53;;;5.97;;
83659;SDS011;73632;50.808;3.422;2023-11-19T08:37:11;45.42;;;6.30;;
83659;SDS011;73632;50.808;3.422;2023-11-19T08:39:37;29.67;;;4.97;;
83659;SDS011;73632;50.808;3.422;2023-11-19T08:42:03;30.92;;;4.40;;
83659;SDS011;73632;50.808;3.422;2023-11-19T08:44:29;35.58;;;5.68;;
83659;SDS011;73632;50.808;3.422;2023-11-19T08:46:54;37.00;;;6.15;;
83659;SDS011;73632;50.808;3.422;2023-11-19T08:49:20;41.78;;;5.63;;
83659;SDS011;73632;50.808;3.422;2023-11-19T08:51:45;32.88;;;4.47;;
83659;SDS011;73632;50.808;3.422;2023-11-19T08:54:11;31.42;;;5.13;;
83659;SDS011;73632;50.808;3.422;2023-11-19T08:56:37;31.10;;;5.53;;
83659;SDS011;73632;50.808;3.422;2023-11-19T08:59:04;32.10;;;4.38;;
83659;SDS011;73632;50.808;3.422;2023-11-19T09:01:29;28.95;;;5.68;;
83659;SDS011;73632;50.808;3.422;2023-11-19T09:03:55;32.17;;;5.30;;
83659;SDS011;73632;50.808;3.422;2023-11-19T09:06:20;35.80;;;4.93;;
83659;SDS011;73632;50.808;3.422;2023-11-19T09:08:46;32.85;;;5.20;;
83659;SDS011;73632;50.808;3.422;2023-11-19T09:11:11;31.42;;;4.53;;
83659;SDS011;73632;50.808;3.422;2023-11-19T09:13:37;32.95;;;5.00;;
83659;SDS011;73632;50.808;3.422;2023-11-19T09:16:02;29.23;;;4.68;;
83659;SDS011;73632;50.808;3.422;2023-11-19T09:18:29;36.15;;;5.38;;
83659;SDS011;73632;50.808;3.422;2023-11-19T09:20:54;32.63;;;4.75;;
83659;SDS011;73632;50.808;3.422;2023-11-19T09:23:20;23.38;;;3.97;;
83659;SDS011;73632;50.808;3.422;2023-11-19T09:25:45;30.45;;;5.00;;
83659;SDS011;73632;50.808;3.422;2023-11-19T09:28:11;28.42;;;4.43;;
83659;SDS011;73632;50.808;3.422;2023-11-19T09:30:36;31.02;;;5.18;;
83659;SDS011;73632;50.808;3.422;2023-11-19T09:33:01;30.73;;;5.03;;
83659;SDS011;73632;50.808;3.422;2023-11-19T09:35:27;27.52;;;4.75;;
83659;SDS011;73632;50.808;3.422;2023-11-19T09:37:52;28.95;;;4.18;;
83659;SDS011;73632;50.808;3.422;2023-11-19T09:40:18;31.70;;;5.60;;
83659;SDS011;73632;50.808;3.422;2023-11-19T09:42:44;25.67;;;4.70;;
83659;SDS011;73632;50.808;3.422;2023-11-19T09:45:13;26.23;;;4.05;;
83659;SDS011;73632;50.808;3.422;2023-11-19T09:47:44;29.52;;;4.88;;
83659;SDS011;73632;50.808;3.422;2023-11-19T09:50:17;31.80;;;4.82;;
83659;SDS011;73632;50.808;3.422;2023-11-19T09:52:44;34.38;;;5.65;;
83659;SDS011;73632;50.808;3.422;2023-11-19T09:55:10;30.75;;;5.18;;
83659;SDS011;73632;50.808;3.422;2023-11-19T09:57:35;32.00;;;4.63;;
83659;SDS011;73632;50.808;3.422;2023-11-19T10:00:07;30.40;;;4.65;;
83659;SDS011;73632;50.808;3.422;2023-11-19T10:02:35;27.10;;;4.60;;
83659;SDS011;73632;50.808;3.422;2023-11-19T10:05:03;31.15;;;5.22;;
83659;SDS011;73632;50.808;3.422;2023-11-19T10:07:31;26.13;;;4.90;;
83659;SDS011;73632;50.808;3.422;2023-11-19T10:10:01;49.45;;;5.90;;
83659;SDS011;73632;50.808;3.422;2023-11-19T10:12:29;27.75;;;4.68;;
83659;SDS011;73632;50.808;3.422;2023-11-19T10:14:58;38.83;;;5.60;;
83659;SDS011;73632;50.808;3.422;2023-11-19T10:17:33;30.42;;;4.82;;
83659;SDS011;73632;50.808;3.422;2023-11-19T10:20:00;28.08;;;4.53;;
83659;SDS011;73632;50.808;3.422;2023-11-19T10:22:27;31.65;;;4.65;;
83659;SDS011;73632;50.808;3.422;2023-11-19T10:24:52;23.42;;;4.50;;
83659;SDS011;73632;50.808;3.422;2023-11-19T10:27:18;30.13;;;4.60;;
83659;SDS011;73632;50.808;3.422;2023-11-19T10:29:44;28.48;;;4.95;;
83659;SDS011;73632;50.808;3.422;2023-11-19T10:32:12;43.28;;;5.20;;
83659;SDS011;73632;50.808;3.422;2023-11-19T10:34:38;41.50;;;4.82;;
83659;SDS011;73632;50.808;3.422;2023-11-19T10:37:04;29.75;;;4.97;;
83659;SDS011;73632;50.808;3.422;2023-11-19T10:42:19;28.13;;;5.03;;
83659;SDS011;73632;50.808;3.422;2023-11-19T10:44:45;31.58;;;5.03;;
83659;SDS011;73632;50.808;3.422;2023-11-19T10:47:10;35.92;;;5.40;;
83659;SDS011;73632;50.808;3.422;2023-11-19T10:49:38;25.80;;;4.70;;
83659;SDS011;73632;50.808;3.422;2023-11-19T10:52:05;40.10;;;5.55;;
83659;SDS011;73632;50.808;3.422;2023-11-19T10:54:30;41.08;;;5.78;;
83659;SDS011;73632;50.808;3.422;2023-11-19T10:57:01;37.90;;;5.35;;
83659;SDS011;73632;50.808;3.422;2023-11-19T10:59:30;40.03;;;4.93;;
83659;SDS011;73632;50.808;3.422;2023-11-19T11:01:57;30.75;;;4.63;;
83659;SDS011;73632;50.808;3.422;2023-11-19T11:04:23;46.35;;;5.75;;
83659;SDS011;73632;50.808;3.422;2023-11-19T11:06:50;39.03;;;6.13;;
83659;SDS011;73632;50.808;3.422;2023-11-19T11:09:16;34.88;;;6.05;;
83659;SDS011;73632;50.808;3.422;2023-11-19T11:11:45;36.50;;;5.68;;
83659;SDS011;73632;50.808;3.422;2023-11-19T11:14:12;31.15;;;5.32;;
83659;SDS011;73632;50.808;3.422;2023-11-19T11:16:41;36.83;;;5.78;;
83659;SDS011;73632;50.808;3.422;2023-11-19T11:19:07;27.58;;;4.93;;
83659;SDS011;73632;50.808;3.422;2023-11-19T11:21:34;30.52;;;4.60;;
83659;SDS011;73632;50.808;3.422;2023-11-19T11:32:23;32.42;;;5.43;;
83659;SDS011;73632;50.808;3.422;2023-11-19T11:35:12;30.17;;;4.90;;
83659;SDS011;73632;50.808;3.422;2023-11-19T11:37:45;31.58;;;4.63;;
83659;SDS011;73632;50.808;3.422;2023-11-19T11:40:15;31.63;;;5.50;;
83659;SDS011;73632;50.808;3.422;2023-11-19T11:42:41;38.72;;;4.80;;
83659;SDS011;73632;50.808;3.422;2023-11-19T11:50:08;38.70;;;5.32;;
83659;SDS011;73632;50.808;3.422;2023-11-19T11:55:25;32.67;;;4.93;;
83659;SDS011;73632;50.808;3.422;2023-11-19T11:57:58;32.25;;;5.57;;
83659;SDS011;73632;50.808;3.422;2023-11-19T12:00:37;41.30;;;5.97;;
83659;SDS011;73632;50.808;3.422;2023-11-19T12:03:04;35.10;;;5.32;;
83659;SDS011;73632;50.808;3.422;2023-11-19T12:05:31;36.53;;;6.28;;
83659;SDS011;73632;50.808;3.422;2023-11-19T12:08:03;38.25;;;6.93;;
83659;SDS011;73632;50.808;3.422;2023-11-19T12:10:32;46.20;;;8.32;;
83659;SDS011;73632;50.808;3.422;2023-11-19T12:13:02;44.55;;;6.85;;
83659;SDS011;73632;50.808;3.422;2023-11-19T12:15:33;41.53;;;6.32;;
83659;SDS011;73632;50.808;3.422;2023-11-19T12:17:58;37.22;;;6.07;;
83659;SDS011;73632;50.808;3.422;2023-11-19T12:20:24;38.22;;;5.90;;
83659;SDS011;73632;50.808;3.422;2023-11-19T12:22:51;39.40;;;5.90;;
83659;SDS011;73632;50.808;3.422;2023-11-19T12:25:18;40.05;;;6.50;;
83659;SDS011;73632;50.808;3.422;2023-11-19T12:27:46;36.67;;;5.57;;
83659;SDS011;73632;50.808;3.422;2023-11-19T12:30:16;31.92;;;5.65;;
83659;SDS011;73632;50.808;3.422;2023-11-19T12:32:46;33.85;;;4.93;;
83659;SDS011;73632;50.808;3.422;2023-11-19T12:35:11;36.17;;;5.88;;
83659;SDS011;73632;50.808;3.422;2023-11-19T12:40:16;30.98;;;5.93;;
83659;SDS011;73632;50.808;3.422;2023-11-19T12:42:46;37.88;;;5.00;;
83659;SDS011;73632;50.808;3.422;2023-11-19T12:45:12;39.10;;;6.40;;
83659;SDS011;73632;50.808;3.422;2023-11-19T12:47:44;29.05;;;4.18;;
83659;SDS011;73632;50.808;3.422;2023-11-19T12:50:14;41.15;;;5.55;;
83659;SDS011;73632;50.808;3.422;2023-11-19T12:52:42;33.67;;;5.22;;
83659;SDS011;73632;50.808;3.422;2023-11-19T12:57:57;28.10;;;4.80;;
83659;SDS011;73632;50.808;3.422;2023-11-19T13:00:24;33.95;;;5.07;;
83659;SDS011;73632;50.808;3.422;2023-11-19T13:05:24;32.85;;;5.20;;
83659;SDS011;73632;50.808;3.422;2023-11-19T13:08:13;45.22;;;5.78;;
83659;SDS011;73632;50.808;3.422;2023-11-19T13:13:13;42.13;;;5.47;;
83659;SDS011;73632;50.808;3.422;2023-11-19T13:15:38;31.23;;;5.15;;
83659;SDS011;73632;50.808;3.422;2023-11-19T13:18:05;35.33;;;5.00;;
83659;SDS011;73632;50.808;3.422;2023-11-19T13:20:31;33.53;;;4.50;;
83659;SDS011;73632;50.808;3.422;2023-11-19T13:22:59;34.05;;;4.60;;
83659;SDS011;73632;50.808;3.422;2023-11-19T13:25:33;28.55;;;4.30;;
83659;SDS011;73632;50.808;3.422;2023-11-19T13:27:58;39.55;;;5.65;;
83659;SDS011;73632;50.808;3.422;2023-11-19T13:30:25;43.72;;;6.32;;
83659;SDS011;73632;50.808;3.422;2023-11-19T13:32:51;37.75;;;5.38;;
83659;SDS011;73632;50.808;3.422;2023-11-19T13:35:18;38.45;;;5.43;;
83659;SDS011;73632;50.808;3.422;2023-11-19T13:37:44;40.20;;;5.28;;
83659;SDS011;73632;50.808;3.422;2023-11-19T13:40:10;43.45;;;6.72;;
83659;SDS011;73632;50.808;3.422;2023-11-19T13:42:40;35.10;;;4.55;;
83659;SDS011;73632;50.808;3.422;2023-11-19T13:45:15;33.70;;;5.95;;
83659;SDS011;73632;50.808;3.422;2023-11-19T13:47:43;38.30;;;5.22;;
83659;SDS011;73632;50.808;3.422;2023-11-19T13:50:10;37.63;;;5.50;;
83659;SDS011;73632;50.808;3.422;2023-11-19T13:52:39;34.88;;;5.47;;
83659;SDS011;73632;50.808;3.422;2023-11-19T13:55:07;40.63;;;5.25;;
83659;SDS011;73632;50.808;3.422;2023-11-19T13:57:37;30.77;;;4.82;;
83659;SDS011;73632;50.808;3.422;2023-11-19T14:00:06;50.13;;;6.03;;
83659;SDS011;73632;50.808;3.422;2023-11-19T14:02:50;23.92;;;4.97;;
83659;SDS011;73632;50.808;3.422;2023-11-19T14:05:15;29.52;;;5.60;;
83659;SDS011;73632;50.808;3.422;2023-11-19T14:07:44;34.40;;;5.20;;
83659;SDS011;73632;50.808;3.422;2023-11-19T14:10:13;36.47;;;5.43;;
83659;SDS011;73632;50.808;3.422;2023-11-19T14:12:39;31.23;;;4.85;;
83659;SDS011;73632;50.808;3.422;2023-11-19T14:15:08;27.88;;;5.30;;
83659;SDS011;73632;50.808;3.422;2023-11-19T14:17:35;29.38;;;4.32;;
83659;SDS011;73632;50.808;3.422;2023-11-19T14:20:04;39.20;;;5.65;;
83659;SDS011;73632;50.808;3.422;2023-11-19T14:22:41;35.97;;;5.57;;
83659;SDS011;73632;50.808;3.422;2023-11-19T14:25:08;38.53;;;5.40;;
83659;SDS011;73632;50.808;3.422;2023-11-19T14:27:38;35.90;;;5.15;;
83659;SDS011;73632;50.808;3.422;2023-11-19T14:30:05;32.03;;;5.00;;
83659;SDS011;73632;50.808;3.422;2023-11-19T14:32:32;28.83;;;4.40;;
83659;SDS011;73632;50.808;3.422;2023-11-19T14:34:57;30.58;;;5.00;;
83659;SDS011;73632;50.808;3.422;2023-11-19T14:37:23;32.20;;;4.93;;
83659;SDS011;73632;50.808;3.422;2023-11-19T14:39:49;29.60;;;4.57;;
83659;SDS011;73632;50.808;3.422;2023-11-19T14:42:15;40.28;;;5.78;;
83659;SDS011;73632;50.808;3.422;2023-11-19T14:44:41;30.33;;;4.78;;
83659;SDS011;73632;50.808;3.422;2023-11-19T14:47:07;38.03;;;5.20;;
83659;SDS011;73632;50.808;3.422;2023-11-19T14:49:34;40.58;;;5.47;;
83659;SDS011;73632;50.808;3.422;2023-11-19T14:52:00;33.08;;;4.95;;
83659;SDS011;73632;50.808;3.422;2023-11-19T14:54:25;31.48;;;4.20;;
83659;SDS011;73632;50.808;3.422;2023-11-19T14:56:51;30.95;;;5.88;;
83659;SDS011;73632;50.808;3.422;2023-11-19T14:59:17;36.72;;;5.93;;
83659;SDS011;73632;50.808;3.422;2023-11-19T15:01:44;28.83;;;4.53;;
83659;SDS011;73632;50.808;3.422;2023-11-19T15:04:10;30.58;;;3.97;;
83659;SDS011;73632;50.808;3.422;2023-11-19T15:06:36;29.05;;;4.47;;